Aviation Digital Data Service (ADDS)

Output produced by METARs form (1350 UTC 19 August 2019)
found at http://aviationweather.gov/metar/data/
 
TAF ETNT 191300Z 1914/1923 23015G25KT 9999 NSW SCT035 
     PROB30 1914/1923 28015G25KT 4000 SHRA SCT010 BKN020TCU BY ETGL